PWSweather.com
Personal Weather Stations
Station Observations
WISCHPK61
Green Bay Schmitt Park, Green Bay, WI 54311

Green Bay Schmitt ParkGreen Bay, WI 54311

Lat: 44.514277, Lon: -87.935067

Elevation: 735

Station Type: Acu Rite Pro Weather Center model 02032C

http://greenbayweathercam.com

High Low Average
Temperature 34.0°F1.1°C 24.1°F-4.4°C 27.1°F-2.7°C
Dew Point 30.5°F-0.8°C 21.3°F-5.9°C 23.9°F-4.5°C
Winds Calm Calm Calm Calm Calm SECalm SE
Wind Gusts -- -- --
Humidity 89% 84% 88%
Pressure 29.41 in995.9 mb 29.06 in984.1 mb -
Precipitation 0.00 in0.0 mm - -
Hour Temp Dew Point Humidity Winds Wind Gusts Pressure Precip Precip Rate Daily Precip Total
12:00 AM 25.0°F-3.9°C 21.9°F-5.6°C 88% Calm Calm -- 29.41 in995.9 mb - 0.00 in0.0 mm 0.00 in0.0 mm
01:00 AM 25.0°F-3.9°C 22.2°F-5.4°C 89% Calm Calm -- 29.36 in994.2 mb - 0.00 in0.0 mm 0.00 in0.0 mm
02:00 AM 24.6°F-4.1°C 21.8°F-5.7°C 89% Calm Calm -- 29.32 in992.9 mb - 0.00 in0.0 mm 0.00 in0.0 mm
03:00 AM 24.4°F-4.2°C 21.6°F-5.8°C 89% Calm Calm -- 29.32 in992.9 mb - 0.00 in0.0 mm 0.00 in0.0 mm
04:00 AM 24.3°F-4.3°C 21.5°F-5.8°C 89% Calm Calm -- 29.31 in992.6 mb - 0.00 in0.0 mm 0.00 in0.0 mm
05:00 AM 24.1°F-4.4°C 21.3°F-5.9°C 89% Calm Calm -- 29.30 in992.2 mb - 0.00 in0.0 mm 0.00 in0.0 mm
06:00 AM 24.1°F-4.4°C 21.3°F-5.9°C 89% Calm Calm -- 29.29 in991.9 mb - 0.00 in0.0 mm 0.00 in0.0 mm
07:00 AM 25.2°F-3.8°C 21.9°F-5.6°C 87% Calm Calm -- 29.26 in990.9 mb - 0.00 in0.0 mm 0.00 in0.0 mm
08:00 AM 26.4°F-3.1°C 22.8°F-5.1°C 86% Calm Calm -- 29.22 in989.5 mb - 0.00 in0.0 mm 0.00 in0.0 mm
09:00 AM 26.4°F-3.1°C 23.1°F-4.9°C 87% Calm Calm -- 29.23 in989.8 mb - 0.00 in0.0 mm 0.00 in0.0 mm
10:00 AM 26.4°F-3.1°C 23.3°F-4.8°C 88% Calm Calm -- 29.21 in989.2 mb - 0.00 in0.0 mm 0.00 in0.0 mm
11:00 AM 27.1°F-2.7°C 23.7°F-4.6°C 87% Calm Calm -- 29.18 in988.1 mb - 0.00 in0.0 mm 0.00 in0.0 mm
12:00 PM 27.3°F-2.6°C 23.9°F-4.5°C 87% Calm Calm -- 29.15 in987.1 mb - 0.00 in0.0 mm 0.00 in0.0 mm
01:00 PM 27.9°F-2.3°C 24.5°F-4.2°C 87% Calm Calm -- 29.11 in985.8 mb - 0.00 in0.0 mm 0.00 in0.0 mm
02:00 PM 31.6°F-0.2°C 27.6°F-2.4°C 85% Calm Calm -- 29.12 in986.1 mb - 0.00 in0.0 mm 0.00 in0.0 mm
03:00 PM 32.3°F0.2°C 28.0°F-2.2°C 84% Calm Calm -- 29.11 in985.8 mb - 0.00 in0.0 mm 0.00 in0.0 mm
04:00 PM 34.0°F1.1°C 30.5°F-0.8°C 87% Calm Calm -- 29.10 in985.4 mb - 0.00 in0.0 mm 0.00 in0.0 mm
05:00 PM 31.6°F-0.2°C 28.5°F-1.9°C 88% Calm Calm -- 29.09 in985.1 mb - 0.00 in0.0 mm 0.00 in0.0 mm
06:00 PM 28.8°F-1.8°C 25.7°F-3.5°C 88% Calm Calm -- 29.09 in985.1 mb - 0.00 in0.0 mm 0.00 in0.0 mm
07:00 PM 27.5°F-2.5°C 24.4°F-4.2°C 88% Calm Calm -- 29.09 in985.1 mb - 0.00 in0.0 mm 0.00 in0.0 mm
08:00 PM 27.3°F-2.6°C 24.2°F-4.3°C 88% Calm Calm -- 29.09 in985.1 mb - 0.00 in0.0 mm 0.00 in0.0 mm
09:00 PM 27.3°F-2.6°C 24.2°F-4.3°C 88% Calm Calm -- 29.08 in984.8 mb - 0.00 in0.0 mm 0.00 in0.0 mm
10:00 PM 26.8°F-2.9°C 23.7°F-4.6°C 88% Calm Calm -- 29.08 in984.8 mb - 0.00 in0.0 mm 0.00 in0.0 mm
11:00 PM 25.7°F-3.5°C 22.6°F-5.2°C 88% Calm Calm -- 29.06 in984.1 mb - 0.00 in0.0 mm 0.00 in0.0 mm